Time;durP1;ratioP1;P1;durP2;ratioP2;P2;SDS_P1;SDS_P2;PMS_P1;PMS_P2;Temp;Humidity;BMP_temperature;BMP_pressure;BME280_temperature;BME280_humidity;BME280_pressure;Samples;Min_cycle;Max_cycle;Signal;HPM_P1;HPM_P2
2021/11/25 00:01:50;;;;;;;;;;;;;;;;;;5052565;28;20335;-64
2021/11/25 00:04:19;;;;;;;;;;;;;;;;;;5055730;28;19931;-64
2021/11/25 00:06:46;;;;;;;;;;;;;;;;;;5055186;28;20019;-66
2021/11/25 00:09:13;;;;;;;;;;;;;;;;;;5066196;28;19928;-65
2021/11/25 00:11:40;;;;;;;;;;;;;;;;;;5058634;28;19928;-64
2021/11/25 00:14:07;;;;;;;;;;;;;;;;;;5064047;28;19930;-64
2021/11/25 00:16:34;;;;;;;;;;;;;;;;;;5066068;28;20018;-64
2021/11/25 00:19:01;;;;;;;;;;;;;;;;;;5058765;28;20031;-64
2021/11/25 00:21:28;;;;;;;;;;;;;;;;;;5062973;28;19938;-64
2021/11/25 00:23:55;;;;;;;;;;;;;;;;;;5060038;28;19931;-64
2021/11/25 00:26:22;;;;;;;;;;;;;;;;;;5058340;28;19924;-66
2021/11/25 00:28:49;;;;;;;;;;;;;;;;;;5064571;28;19924;-66
2021/11/25 00:31:16;;;;;;;;;;;;;;;;;;5066456;28;19932;-64
2021/11/25 00:33:45;;;;;;;;;;;;;;;;;;5059044;28;19939;-65
2021/11/25 00:36:12;;;;;;;;;;;;;;;;;;5058904;28;19933;-64
2021/11/25 00:38:39;;;;;;;;;;;;;;;;;;5070708;28;19924;-65
2021/11/25 00:41:06;;;;;;;;;;;;;;;;;;5065629;28;20303;-64
2021/11/25 00:43:33;;;;;;;;;;;;;;;;;;5057772;28;19929;-64
2021/11/25 00:46:00;;;;;;;;;;;;;;;;;;5057342;28;19925;-64
2021/11/25 00:48:27;;;;;;;;;;;;;;;;;;5065954;28;19924;-64
2021/11/25 00:50:54;;;;;;;;;;;;;;;;;;5070445;28;19929;-64
2021/11/25 00:53:21;;;;;;;;;;;;;;;;;;5055218;28;20380;-64
2021/11/25 00:55:48;;;;;;;;;;;;;;;;;;5064434;28;19946;-65
2021/11/25 00:58:15;;;;;;;;;;;;;;;;;;5064981;28;19931;-64
2021/11/25 01:00:42;;;;;;;;;;;;;;;;;;5056248;28;20381;-66
2021/11/25 01:03:09;;;;;;;;;;;;;;;;;;5052116;28;19925;-64
2021/11/25 01:05:36;;;;;;;;;;;;;;;;;;5060870;28;19935;-64
2021/11/25 01:08:03;;;;;;;;;;;;;;;;;;5067461;28;19935;-64
2021/11/25 01:10:30;;;;;;;;;;;;;;;;;;5068719;28;20311;-64
2021/11/25 01:12:56;;;;;;;;;;;;;;;;;;5073025;28;19925;-64
2021/11/25 01:15:29;;;;;;;;;;;;;;;;;;5068722;28;19929;-65
2021/11/25 01:17:56;;;;;;;;;;;;;;;;;;5067287;28;19924;-65
2021/11/25 01:20:23;;;;;;;;;;;;;;;;;;5071773;28;19929;-67
2021/11/25 01:22:50;;;;;;;;;;;;;;;;;;5081070;28;20007;-64
2021/11/25 01:25:17;;;;;;;;;;;;;;;;;;5067712;28;19932;-64
2021/11/25 01:27:44;;;;;;;;;;;;;;;;;;5062134;28;19924;-66
2021/11/25 01:30:11;;;;;;;;;;;;;;;;;;5059159;28;19984;-65
2021/11/25 01:32:38;;;;;;;;;;;;;;;;;;5058193;28;19928;-65
2021/11/25 01:35:05;;;;;;;;;;;;;;;;;;5065884;28;20319;-65
2021/11/25 01:37:33;;;;;;;;;;;;;;;;;;5070438;28;19946;-65
2021/11/25 01:40:00;;;;;;;;;;;;;;;;;;5075026;28;19925;-65
2021/11/25 01:42:26;;;;;;;;;;;;;;;;;;5065850;28;19924;-64
2021/11/25 01:44:53;;;;;;;;;;;;;;;;;;5074710;28;19928;-65
2021/11/25 01:47:20;;;;;;;;;;;;;;;;;;5063449;28;19933;-65
2021/11/25 01:49:47;;;;;;;;;;;;;;;;;;5065893;28;19924;-65
2021/11/25 01:52:14;;;;;;;;;;;;;;;;;;5059493;28;20289;-64
2021/11/25 01:54:41;;;;;;;;;;;;;;;;;;5068412;28;19924;-65
2021/11/25 01:57:08;;;;;;;;;;;;;;;;;;5060873;28;19925;-65
2021/11/25 01:59:36;;;;;;;;;;;;;;;;;;5072699;28;19924;-63
2021/11/25 02:02:03;;;;;;;;;;;;;;;;;;5059133;28;19936;-64
2021/11/25 02:04:30;;;;;;;;;;;;;;;;;;5065197;28;20292;-64
2021/11/25 02:06:57;;;;;;;;;;;;;;;;;;5057843;28;19959;-65
2021/11/25 02:09:24;;;;;;;;;;;;;;;;;;5060543;28;19925;-65
2021/11/25 02:11:51;;;;;;;;;;;;;;;;;;5073365;28;19924;-64
2021/11/25 02:14:18;;;;;;;;;;;;;;;;;;5072523;28;20395;-65
2021/11/25 02:16:45;;;;;;;;;;;;;;;;;;5060991;28;20300;-64
2021/11/25 02:19:12;;;;;;;;;;;;;;;;;;5061819;28;19944;-66
2021/11/25 02:21:39;;;;;;;;;;;;;;;;;;5063483;28;19928;-65
2021/11/25 02:24:06;;;;;;;;;;;;;;;;;;5069684;28;19925;-63
2021/11/25 02:26:33;;;;;;;;;;;;;;;;;;5060518;28;19925;-65
2021/11/25 02:29:00;;;;;;;;;;;;;;;;;;5062409;28;20376;-65
2021/11/25 02:31:27;;;;;;;;;;;;;;;;;;5055674;28;19924;-65
2021/11/25 02:33:54;;;;;;;;;;;;;;;;;;5070220;28;19928;-65
2021/11/25 02:36:21;;;;;;;;;;;;;;;;;;5064652;28;20315;-65
2021/11/25 02:38:48;;;;;;;;;;;;;;;;;;5068937;28;20023;-66
2021/11/25 02:41:14;;;;;;;;;;;;;;;;;;5061271;28;19929;-66
2021/11/25 02:43:41;;;;;;;;;;;;;;;;;;5062274;28;19925;-65
2021/11/25 02:46:08;;;;;;;;;;;;;;;;;;5069480;28;20520;-65
2021/11/25 02:48:35;;;;;;;;;;;;;;;;;;5066068;28;19924;-65
2021/11/25 02:51:02;;;;;;;;;;;;;;;;;;5055494;28;19924;-65
2021/11/25 02:53:29;;;;;;;;;;;;;;;;;;5064614;28;20405;-65
2021/11/25 02:55:56;;;;;;;;;;;;;;;;;;5060384;28;19924;-65
2021/11/25 02:58:23;;;;;;;;;;;;;;;;;;5067960;28;19935;-68
2021/11/25 03:00:50;;;;;;;;;;;;;;;;;;5062597;28;19925;-65
2021/11/25 03:03:17;;;;;;;;;;;;;;;;;;5061449;28;19925;-64
2021/11/25 03:05:44;;;;;;;;;;;;;;;;;;5078021;28;20006;-64
2021/11/25 03:08:11;;;;;;;;;;;;;;;;;;5064401;28;19929;-66
2021/11/25 03:10:38;;;;;;;;;;;;;;;;;;5054648;28;19924;-65
2021/11/25 03:13:05;;;;;;;;;;;;;;;;;;5064385;28;19925;-63
2021/11/25 03:15:32;;;;;;;;;;;;;;;;;;5060377;28;19924;-64
2021/11/25 03:17:59;;;;;;;;;;;;;;;;;;5067593;28;19924;-64
2021/11/25 03:20:26;;;;;;;;;;;;;;;;;;5064860;28;19929;-66
2021/11/25 03:22:53;;;;;;;;;;;;;;;;;;5066325;28;19930;-64
2021/11/25 03:25:20;;;;;;;;;;;;;;;;;;5061716;28;19932;-65
2021/11/25 03:27:47;;;;;;;;;;;;;;;;;;5061633;28;19931;-65
2021/11/25 03:30:14;;;;;;;;;;;;;;;;;;5067176;28;19936;-63
2021/11/25 03:32:41;;;;;;;;;;;;;;;;;;5062843;28;19925;-63
2021/11/25 03:35:08;;;;;;;;;;;;;;;;;;5058774;28;20363;-63
2021/11/25 03:37:35;;;;;;;;;;;;;;;;;;5059300;28;19929;-65
2021/11/25 03:40:02;;;;;;;;;;;;;;;;;;5063196;28;19924;-62
2021/11/25 03:42:29;;;;;;;;;;;;;;;;;;5061481;28;19925;-65
2021/11/25 03:44:56;;;;;;;;;;;;;;;;;;5061414;28;19928;-64
2021/11/25 03:47:22;;;;;;;;;;;;;;;;;;5057604;28;19924;-66
2021/11/25 03:49:49;;;;;;;;;;;;;;;;;;5062904;28;19931;-66
2021/11/25 03:52:16;;;;;;;;;;;;;;;;;;5059919;28;19929;-65
2021/11/25 03:54:43;;;;;;;;;;;;;;;;;;5059307;28;19939;-66
2021/11/25 03:57:10;;;;;;;;;;;;;;;;;;5065622;28;20011;-65
2021/11/25 03:59:37;;;;;;;;;;;;;;;;;;5052577;28;20420;-65
2021/11/25 04:02:04;;;;;;;;;;;;;;;;;;5056191;28;19928;-66
2021/11/25 04:04:31;;;;;;;;;;;;;;;;;;5062139;28;19931;-65
2021/11/25 04:06:58;;;;;;;;;;;;;;;;;;5054922;28;19924;-65
2021/11/25 04:09:25;;;;;;;;;;;;;;;;;;5063493;28;20527;-66
2021/11/25 04:11:52;;;;;;;;;;;;;;;;;;5061861;28;20284;-64
2021/11/25 04:14:19;;;;;;;;;;;;;;;;;;5051847;28;19925;-65
2021/11/25 04:16:46;;;;;;;;;;;;;;;;;;5065634;28;19924;-65
2021/11/25 04:19:13;;;;;;;;;;;;;;;;;;5069980;28;20043;-65
2021/11/25 04:21:40;;;;;;;;;;;;;;;;;;5061523;28;20291;-63
2021/11/25 04:24:07;;;;;;;;;;;;;;;;;;5069847;28;19947;-64
2021/11/25 04:26:34;;;;;;;;;;;;;;;;;;5066643;28;20579;-63
2021/11/25 04:29:01;;;;;;;;;;;;;;;;;;5071972;28;19924;-66
2021/11/25 04:36:59;;;;;;;;;;;;;;;;;;5079507;22;20300;-67
2021/11/25 04:39:27;;;;;;;;;;;;;;;;;;5066347;28;19978;-68
2021/11/25 04:41:54;;;;;;;;;;;;;;;;;;5065663;28;19977;-66
2021/11/25 04:44:21;;;;;;;;;;;;;;;;;;5075480;28;19924;-67
2021/11/25 04:46:47;;;;;;;;;;;;;;;;;;5072042;28;20019;-67
2021/11/25 04:49:15;;;;;;;;;;;;;;;;;;5069754;28;19935;-68
2021/11/25 04:51:42;;;;;;;;;;;;;;;;;;5061412;28;19925;-68
2021/11/25 04:54:09;;;;;;;;;;;;;;;;;;5068827;28;19931;-68
2021/11/25 04:56:36;;;;;;;;;;;;;;;;;;5068858;28;20392;-66
2021/11/25 04:59:03;;;;;;;;;;;;;;;;;;5062856;28;19925;-67
2021/11/25 05:01:30;;;;;;;;;;;;;;;;;;5065756;28;19983;-67
2021/11/25 05:03:57;;;;;;;;;;;;;;;;;;5072520;28;20299;-68
2021/11/25 05:06:24;;;;;;;;;;;;;;;;;;5065581;28;19924;-65
2021/11/25 05:08:51;;;;;;;;;;;;;;;;;;5067593;28;19931;-68
2021/11/25 05:11:18;;;;;;;;;;;;;;;;;;5065521;28;20647;-68
2021/11/25 05:13:45;;;;;;;;;;;;;;;;;;5063027;28;20408;-66
2021/11/25 05:16:12;;;;;;;;;;;;;;;;;;5066209;28;20275;-67
2021/11/25 05:18:39;;;;;;;;;;;;;;;;;;5063783;28;20384;-67
2021/11/25 05:21:06;;;;;;;;;;;;;;;;;;5069855;28;19924;-66
2021/11/25 05:23:33;;;;;;;;;;;;;;;;;;5065248;28;20011;-65
2021/11/25 05:26:00;;;;;;;;;;;;;;;;;;5064514;28;20015;-67
2021/11/25 05:28:27;;;;;;;;;;;;;;;;;;5067913;28;19925;-66
2021/11/25 05:30:54;;;;;;;;;;;;;;;;;;5072827;28;19978;-68
2021/11/25 05:33:21;;;;;;;;;;;;;;;;;;5067760;28;19940;-66
2021/11/25 05:35:48;;;;;;;;;;;;;;;;;;5063431;28;19924;-68
2021/11/25 05:38:15;;;;;;;;;;;;;;;;;;5066138;28;20322;-67
2021/11/25 05:40:43;;;;;;;;;;;;;;;;;;5070346;28;19924;-67
2021/11/25 05:43:10;;;;;;;;;;;;;;;;;;5066317;28;20392;-67
2021/11/25 05:45:37;;;;;;;;;;;;;;;;;;5069012;28;19925;-69
2021/11/25 05:48:04;;;;;;;;;;;;;;;;;;5064601;28;19928;-67
2021/11/25 05:50:31;;;;;;;;;;;;;;;;;;5062203;28;19925;-66
2021/11/25 05:52:58;;;;;;;;;;;;;;;;;;5070817;28;19925;-66
2021/11/25 05:55:27;;;;;;;;;;;;;;;;;;5060396;28;19934;-67
2021/11/25 05:57:54;;;;;;;;;;;;;;;;;;5067362;28;20305;-67
2021/11/25 06:00:21;;;;;;;;;;;;;;;;;;5068451;28;19928;-65
2021/11/25 06:02:48;;;;;;;;;;;;;;;;;;5065680;28;19931;-67
2021/11/25 06:05:15;;;;;;;;;;;;;;;;;;5064779;28;20011;-66
2021/11/25 06:07:45;;;;;;;;;;;;;;;;;;5067637;28;19932;-68
2021/11/25 06:10:12;;;;;;;;;;;;;;;;;;5064722;28;19935;-65
2021/11/25 06:12:39;;;;;;;;;;;;;;;;;;5066865;28;19925;-70
2021/11/25 06:15:06;;;;;;;;;;;;;;;;;;5068042;28;19924;-67
2021/11/25 06:17:32;;;;;;;;;;;;;;;;;;5064500;28;20085;-67
2021/11/25 06:19:59;;;;;;;;;;;;;;;;;;5065149;28;19935;-68
2021/11/25 06:22:26;;;;;;;;;;;;;;;;;;5063867;28;20266;-68
2021/11/25 06:24:53;;;;;;;;;;;;;;;;;;5064842;28;20003;-65
2021/11/25 06:27:20;;;;;;;;;;;;;;;;;;5064276;28;20343;-68
2021/11/25 06:29:47;;;;;;;;;;;;;;;;;;5063234;28;19931;-70
2021/11/25 06:32:16;;;;;;;;;;;;;;;;;;5061663;28;19929;-68
2021/11/25 06:34:43;;;;;;;;;;;;;;;;;;5061729;28;20492;-66
2021/11/25 06:37:09;;;;;;;;;;;;;;;;;;5062697;28;19924;-66
2021/11/25 06:39:36;;;;;;;;;;;;;;;;;;5067603;28;19931;-66
2021/11/25 06:42:03;;;;;;;;;;;;;;;;;;5066503;28;20482;-68
2021/11/25 06:44:30;;;;;;;;;;;;;;;;;;5067051;28;19959;-70
2021/11/25 06:46:58;;;;;;;;;;;;;;;;;;5060324;28;19925;-66
2021/11/25 06:49:25;;;;;;;;;;;;;;;;;;5069735;28;19928;-67
2021/11/25 06:51:52;;;;;;;;;;;;;;;;;;5059709;28;19955;-68
2021/11/25 06:54:19;;;;;;;;;;;;;;;;;;5061391;28;20023;-67
2021/11/25 06:56:48;;;;;;;;;;;;;;;;;;5068237;28;19928;-67
2021/11/25 06:59:15;;;;;;;;;;;;;;;;;;5060708;28;19925;-67
2021/11/25 07:01:43;;;;;;;;;;;;;;;;;;5062453;28;19924;-68
2021/11/25 07:04:12;;;;;;;;;;;;;;;;;;5066108;28;19924;-68
2021/11/25 07:06:39;;;;;;;;;;;;;;;;;;5061413;28;20186;-69
2021/11/25 07:09:06;;;;;;;;;;;;;;;;;;5060737;28;20412;-69
2021/11/25 07:11:33;;;;;;;;;;;;;;;;;;5067810;28;20299;-68
2021/11/25 07:14:00;;;;;;;;;;;;;;;;;;5061791;28;20412;-67
2021/11/25 07:16:27;;;;;;;;;;;;;;;;;;5060904;28;20365;-67
2021/11/25 07:18:54;;;;;;;;;;;;;;;;;;5060414;28;19925;-66
2021/11/25 07:21:21;;;;;;;;;;;;;;;;;;5062644;28;20307;-67
2021/11/25 07:23:48;;;;;;;;;;;;;;;;;;5067168;28;19924;-67
2021/11/25 07:26:15;;;;;;;;;;;;;;;;;;5057459;28;19929;-68
2021/11/25 07:28:42;;;;;;;;;;;;;;;;;;5061537;28;19925;-67
2021/11/25 07:31:10;;;;;;;;;;;;;;;;;;5059982;28;19931;-67
2021/11/25 07:33:37;;;;;;;;;;;;;;;;;;5064847;28;19931;-67
2021/11/25 07:36:04;;;;;;;;;;;;;;;;;;5062348;28;19928;-68
2021/11/25 07:38:31;;;;;;;;;;;;;;;;;;5058502;28;19956;-68
2021/11/25 07:40:59;;;;;;;;;;;;;;;;;;5054952;28;19924;-68
2021/11/25 07:43:26;;;;;;;;;;;;;;;;;;5054784;28;20003;-70
2021/11/25 07:45:53;;;;;;;;;;;;;;;;;;5054495;28;19928;-66
2021/11/25 07:48:20;;;;;;;;;;;;;;;;;;5059068;28;19932;-67
2021/11/25 07:50:47;;;;;;;;;;;;;;;;;;5058676;28;19931;-65
2021/11/25 07:53:14;;;;;;;;;;;;;;;;;;5059264;28;19931;-67
2021/11/25 07:55:41;;;;;;;;;;;;;;;;;;5045792;28;19925;-68
2021/11/25 07:58:08;;;;;;;;;;;;;;;;;;5055233;28;20241;-68
2021/11/25 08:00:35;;;;;;;;;;;;;;;;;;5057178;28;20437;-68
2021/11/25 08:03:02;;;;;;;;;;;;;;;;;;5060110;28;20015;-68
2021/11/25 08:05:29;;;;;;;;;;;;;;;;;;5062733;28;19925;-69
2021/11/25 08:07:56;;;;;;;;;;;;;;;;;;5051294;28;19931;-67
2021/11/25 08:10:23;;;;;;;;;;;;;;;;;;5060787;28;19939;-68
2021/11/25 08:12:50;;;;;;;;;;;;;;;;;;5066209;28;19932;-68
2021/11/25 08:15:17;;;;;;;;;;;;;;;;;;5057136;28;20425;-68
2021/11/25 08:17:44;;;;;;;;;;;;;;;;;;5060741;28;20393;-68
2021/11/25 08:20:11;;;;;;;;;;;;;;;;;;5063016;28;19952;-68
2021/11/25 08:22:38;;;;;;;;;;;;;;;;;;5065670;28;19947;-67
2021/11/25 08:25:08;;;;;;;;;;;;;;;;;;5060933;28;19928;-69
2021/11/25 08:27:35;;;;;;;;;;;;;;;;;;5059525;28;19929;-68
2021/11/25 08:30:02;;;;;;;;;;;;;;;;;;5061105;28;20358;-68
2021/11/25 08:32:29;;;;;;;;;;;;;;;;;;5057411;28;19989;-67
2021/11/25 08:34:56;;;;;;;;;;;;;;;;;;5060932;28;20296;-69
2021/11/25 08:37:23;;;;;;;;;;;;;;;;;;5061136;28;19925;-68
2021/11/25 08:39:50;;;;;;;;;;;;;;;;;;5062005;28;19930;-68
2021/11/25 08:42:17;;;;;;;;;;;;;;;;;;5062816;28;19991;-67
2021/11/25 08:44:44;;;;;;;;;;;;;;;;;;5058423;28;19932;-68
2021/11/25 08:47:11;;;;;;;;;;;;;;;;;;5059650;28;20019;-68
2021/11/25 08:49:38;;;;;;;;;;;;;;;;;;5054625;28;20020;-68
2021/11/25 08:52:05;;;;;;;;;;;;;;;;;;5057835;28;20018;-68
2021/11/25 08:54:32;;;;;;;;;;;;;;;;;;5064620;28;20280;-68
2021/11/25 08:56:59;;;;;;;;;;;;;;;;;;5066765;28;19936;-68
2021/11/25 08:59:26;;;;;;;;;;;;;;;;;;5060548;28;19925;-68
2021/11/25 09:01:52;;;;;;;;;;;;;;;;;;5064375;28;19925;-68
2021/11/25 09:04:19;;;;;;;;;;;;;;;;;;5063332;28;19925;-68
2021/11/25 09:06:46;;;;;;;;;;;;;;;;;;5061743;28;20365;-67
2021/11/25 09:09:13;;;;;;;;;;;;;;;;;;5063644;28;19925;-68
2021/11/25 09:11:40;;;;;;;;;;;;;;;;;;5061858;28;19932;-68
2021/11/25 09:14:07;;;;;;;;;;;;;;;;;;5056355;28;20023;-68
2021/11/25 09:16:34;;;;;;;;;;;;;;;;;;5061757;28;19930;-68
2021/11/25 09:19:01;;;;;;;;;;;;;;;;;;5065908;28;19924;-68
2021/11/25 09:21:29;;;;;;;;;;;;;;;;;;5062511;28;20019;-68
2021/11/25 09:23:56;;;;;;;;;;;;;;;;;;5052292;28;19979;-68
2021/11/25 09:26:23;;;;;;;;;;;;;;;;;;5067526;28;20383;-68
2021/11/25 09:28:51;;;;;;;;;;;;;;;;;;5063034;28;19977;-68
2021/11/25 09:31:18;;;;;;;;;;;;;;;;;;5063196;28;19947;-67
2021/11/25 09:33:45;;;;;;;;;;;;;;;;;;5068260;28;19936;-67
2021/11/25 09:36:12;;;;;;;;;;;;;;;;;;5072298;28;20496;-68
2021/11/25 09:38:39;;;;;;;;;;;;;;;;;;5068920;28;19924;-68
2021/11/25 09:41:06;;;;;;;;;;;;;;;;;;5064025;28;19933;-68
2021/11/25 09:43:33;;;;;;;;;;;;;;;;;;5060125;28;19931;-68
2021/11/25 09:46:02;;;;;;;;;;;;;;;;;;5066468;28;19938;-68
2021/11/25 09:48:29;;;;;;;;;;;;;;;;;;5067242;28;19936;-68
2021/11/25 09:50:56;;;;;;;;;;;;;;;;;;5064844;28;19932;-68
2021/11/25 09:53:23;;;;;;;;;;;;;;;;;;5066438;28;19924;-68
2021/11/25 09:55:50;;;;;;;;;;;;;;;;;;5067076;28;19932;-67
2021/11/25 09:58:17;;;;;;;;;;;;;;;;;;5064109;28;19925;-68
2021/11/25 10:00:44;;;;;;;;;;;;;;;;;;5069241;28;19924;-67
2021/11/25 10:03:15;;;;;;;;;;;;;;;;;;5061681;28;19925;-68
2021/11/25 10:05:45;;;;;;;;;;;;;;;;;;5061509;28;19924;-68
2021/11/25 10:08:11;;;;;;;;;;;;;;;;;;5056749;28;19935;-67
2021/11/25 10:10:39;;;;;;;;;;;;;;;;;;5057735;28;19940;-69
2021/11/25 10:13:06;;;;;;;;;;;;;;;;;;5060454;28;19994;-68
2021/11/25 10:15:33;;;;;;;;;;;;;;;;;;5063460;28;20319;-69
2021/11/25 10:18:00;;;;;;;;;;;;;;;;;;5063645;28;20031;-67
2021/11/25 10:20:27;;;;;;;;;;;;;;;;;;5068632;28;19943;-67
2021/11/25 10:22:53;;;;;;;;;;;;;;;;;;5063786;28;19925;-67
2021/11/25 10:25:20;;;;;;;;;;;;;;;;;;5052700;28;20418;-68
2021/11/25 10:27:47;;;;;;;;;;;;;;;;;;5064914;28;19998;-67
2021/11/25 10:30:15;;;;;;;;;;;;;;;;;;5061028;28;20490;-68
2021/11/25 10:32:42;;;;;;;;;;;;;;;;;;5064620;28;19924;-68
2021/11/25 10:35:11;;;;;;;;;;;;;;;;;;5055989;28;19929;-66
2021/11/25 10:37:51;;;;;;;;;;;;;;;;;;5056153;28;20027;-67
2021/11/25 10:40:18;;;;;;;;;;;;;;;;;;5059910;28;19971;-68
2021/11/25 10:42:45;;;;;;;;;;;;;;;;;;5066916;28;19925;-68
2021/11/25 10:45:12;;;;;;;;;;;;;;;;;;5061020;28;19925;-68
2021/11/25 10:47:38;;;;;;;;;;;;;;;;;;5063808;28;20301;-68
2021/11/25 10:50:05;;;;;;;;;;;;;;;;;;5061607;28;19924;-68
2021/11/25 10:52:32;;;;;;;;;;;;;;;;;;5062610;28;19931;-68
2021/11/25 10:54:59;;;;;;;;;;;;;;;;;;5063708;28;19925;-68
2021/11/25 10:57:26;;;;;;;;;;;;;;;;;;5064794;28;19925;-68
2021/11/25 10:59:53;;;;;;;;;;;;;;;;;;5062397;28;19975;-66
2021/11/25 11:02:20;;;;;;;;;;;;;;;;;;5059168;28;20396;-67
2021/11/25 11:04:47;;;;;;;;;;;;;;;;;;5064331;28;20010;-66
2021/11/25 11:07:14;;;;;;;;;;;;;;;;;;5064489;28;20377;-68
2021/11/25 11:09:41;;;;;;;;;;;;;;;;;;5058873;28;20828;-67
2021/11/25 11:12:08;;;;;;;;;;;;;;;;;;5061901;28;19924;-67
2021/11/25 11:14:41;;;;;;;;;;;;;;;;;;5065434;28;20281;-67
2021/11/25 11:17:15;;;;;;;;;;;;;;;;;;5065542;28;20300;-68
2021/11/25 11:19:42;;;;;;;;;;;;;;;;;;5054677;28;19924;-68
2021/11/25 11:22:09;;;;;;;;;;;;;;;;;;5063987;28;19924;-67
2021/11/25 11:24:38;;;;;;;;;;;;;;;;;;5060882;28;19925;-68
2021/11/25 11:27:05;;;;;;;;;;;;;;;;;;5063722;28;20335;-67
2021/11/25 11:29:32;;;;;;;;;;;;;;;;;;5063937;28;19928;-69
2021/11/25 11:31:59;;;;;;;;;;;;;;;;;;5064428;28;20281;-67
2021/11/25 11:34:26;;;;;;;;;;;;;;;;;;5063800;28;19925;-68
2021/11/25 11:36:53;;;;;;;;;;;;;;;;;;5060983;28;19951;-67
2021/11/25 11:39:20;;;;;;;;;;;;;;;;;;5066795;28;19924;-68
2021/11/25 11:41:47;;;;;;;;;;;;;;;;;;5063565;28;19931;-67
2021/11/25 11:44:16;;;;;;;;;;;;;;;;;;5063152;28;19932;-69
2021/11/25 11:46:43;;;;;;;;;;;;;;;;;;5067579;28;19928;-68
2021/11/25 11:49:10;;;;;;;;;;;;;;;;;;5064120;28;20015;-67
2021/11/25 11:51:36;;;;;;;;;;;;;;;;;;5058995;28;19925;-68
2021/11/25 11:54:03;;;;;;;;;;;;;;;;;;5061403;28;19931;-69
2021/11/25 11:56:30;;;;;;;;;;;;;;;;;;5057146;28;19924;-69
2021/11/25 11:58:59;;;;;;;;;;;;;;;;;;5057971;28;19924;-66
2021/11/25 12:01:26;;;;;;;;;;;;;;;;;;5059615;28;19928;-68
2021/11/25 12:03:53;;;;;;;;;;;;;;;;;;5060966;28;19929;-68
2021/11/25 12:06:20;;;;;;;;;;;;;;;;;;5060632;28;20477;-67
2021/11/25 12:08:47;;;;;;;;;;;;;;;;;;5057138;28;20311;-68
2021/11/25 12:11:14;;;;;;;;;;;;;;;;;;5057695;28;20324;-67
2021/11/25 12:13:41;;;;;;;;;;;;;;;;;;5058422;28;20127;-67
2021/11/25 12:16:08;;;;;;;;;;;;;;;;;;5061650;28;19925;-67
2021/11/25 12:18:35;;;;;;;;;;;;;;;;;;5063039;28;20021;-68
2021/11/25 12:21:02;;;;;;;;;;;;;;;;;;5059743;28;19924;-68
2021/11/25 12:23:29;;;;;;;;;;;;;;;;;;5059423;28;19967;-68
2021/11/25 12:25:56;;;;;;;;;;;;;;;;;;5056966;28;19947;-68
2021/11/25 12:28:25;;;;;;;;;;;;;;;;;;5061495;28;19924;-67
2021/11/25 12:30:56;;;;;;;;;;;;;;;;;;5059660;28;20359;-68
2021/11/25 12:33:23;;;;;;;;;;;;;;;;;;5065816;28;19970;-67
2021/11/25 12:35:50;;;;;;;;;;;;;;;;;;5060122;28;19943;-69
2021/11/25 12:38:17;;;;;;;;;;;;;;;;;;5058689;28;22702;-68
2021/11/25 12:40:44;;;;;;;;;;;;;;;;;;5057769;28;20379;-69
2021/11/25 12:43:11;;;;;;;;;;;;;;;;;;5058366;28;19985;-68
2021/11/25 12:45:38;;;;;;;;;;;;;;;;;;5060780;28;19931;-69
2021/11/25 12:48:05;;;;;;;;;;;;;;;;;;5064073;28;19925;-68
2021/11/25 12:50:32;;;;;;;;;;;;;;;;;;5059877;28;20040;-68
2021/11/25 12:52:59;;;;;;;;;;;;;;;;;;5062511;28;19928;-66
2021/11/25 12:55:26;;;;;;;;;;;;;;;;;;5065060;28;20011;-67
2021/11/25 12:57:54;;;;;;;;;;;;;;;;;;5064850;28;19924;-68
2021/11/25 13:00:21;;;;;;;;;;;;;;;;;;5065801;28;20026;-68
2021/11/25 13:02:48;;;;;;;;;;;;;;;;;;5063178;28;19931;-69
2021/11/25 13:05:15;;;;;;;;;;;;;;;;;;5065971;28;20408;-68
2021/11/25 13:07:42;;;;;;;;;;;;;;;;;;5067301;28;19930;-69
2021/11/25 13:10:09;;;;;;;;;;;;;;;;;;5061117;28;19968;-67
2021/11/25 13:12:36;;;;;;;;;;;;;;;;;;5063441;28;19975;-69
2021/11/25 13:15:03;;;;;;;;;;;;;;;;;;5062918;28;19924;-68
2021/11/25 13:17:30;;;;;;;;;;;;;;;;;;5067924;28;20014;-69
2021/11/25 13:19:57;;;;;;;;;;;;;;;;;;5066611;28;19990;-68
2021/11/25 13:22:24;;;;;;;;;;;;;;;;;;5065542;28;19934;-69
2021/11/25 13:24:51;;;;;;;;;;;;;;;;;;5062714;28;20005;-68
2021/11/25 13:27:18;;;;;;;;;;;;;;;;;;5063037;28;19951;-68
2021/11/25 13:29:47;;;;;;;;;;;;;;;;;;5063302;28;19994;-68
2021/11/25 13:32:14;;;;;;;;;;;;;;;;;;5065861;28;19924;-68
2021/11/25 13:34:43;;;;;;;;;;;;;;;;;;5064759;28;20179;-68
2021/11/25 13:37:10;;;;;;;;;;;;;;;;;;5063648;28;19933;-69
2021/11/25 13:39:37;;;;;;;;;;;;;;;;;;5064454;28;19929;-68
2021/11/25 13:42:04;;;;;;;;;;;;;;;;;;5064684;28;19978;-68
2021/11/25 13:44:31;;;;;;;;;;;;;;;;;;5060611;28;20020;-68
2021/11/25 13:46:58;;;;;;;;;;;;;;;;;;5064104;28;19925;-69
2021/11/25 13:49:30;;;;;;;;;;;;;;;;;;5055783;28;20407;-68
2021/11/25 13:51:57;;;;;;;;;;;;;;;;;;5062905;28;19928;-69
2021/11/25 13:54:24;;;;;;;;;;;;;;;;;;5062331;28;19940;-68
2021/11/25 13:56:51;;;;;;;;;;;;;;;;;;5064581;28;20269;-69
2021/11/25 13:59:20;;;;;;;;;;;;;;;;;;5056158;28;19929;-68
2021/11/25 14:01:47;;;;;;;;;;;;;;;;;;5064636;28;20003;-68
2021/11/25 14:04:14;;;;;;;;;;;;;;;;;;5065977;28;19998;-68
2021/11/25 14:06:41;;;;;;;;;;;;;;;;;;5059231;28;20062;-68
2021/11/25 14:09:08;;;;;;;;;;;;;;;;;;5062465;28;19924;-67
2021/11/25 14:11:35;;;;;;;;;;;;;;;;;;5060702;28;19925;-67
2021/11/25 14:14:02;;;;;;;;;;;;;;;;;;5064473;28;19931;-68
2021/11/25 14:16:29;;;;;;;;;;;;;;;;;;5064975;28;19925;-68
2021/11/25 14:18:56;;;;;;;;;;;;;;;;;;5057694;28;19928;-68
2021/11/25 14:21:23;;;;;;;;;;;;;;;;;;5064237;28;20296;-67
2021/11/25 14:23:50;;;;;;;;;;;;;;;;;;5060693;28;19924;-69
2021/11/25 14:26:20;;;;;;;;;;;;;;;;;;5061154;28;19929;-68
2021/11/25 14:31:31;;;;;;;;;;;;;;;;;;5062537;28;19923;-68
2021/11/25 14:34:00;;;;;;;;;;;;;;;;;;5063428;28;19928;-67
2021/11/25 14:36:27;;;;;;;;;;;;;;;;;;5061721;28;19973;-67
2021/11/25 14:38:54;;;;;;;;;;;;;;;;;;5062536;28;20397;-67
2021/11/25 14:41:21;;;;;;;;;;;;;;;;;;5063254;28;19955;-69
2021/11/25 14:43:48;;;;;;;;;;;;;;;;;;5063133;28;19974;-69
2021/11/25 14:46:15;;;;;;;;;;;;;;;;;;5067144;28;19975;-69
2021/11/25 14:48:42;;;;;;;;;;;;;;;;;;5059617;28;20442;-68
2021/11/25 14:51:09;;;;;;;;;;;;;;;;;;5065178;28;19924;-67
2021/11/25 14:53:36;;;;;;;;;;;;;;;;;;5061984;28;20024;-67
2021/11/25 14:56:03;;;;;;;;;;;;;;;;;;5062342;28;20491;-68
2021/11/25 14:58:30;;;;;;;;;;;;;;;;;;5060640;28;19925;-67
2021/11/25 15:00:57;;;;;;;;;;;;;;;;;;5047273;28;19962;-67
2021/11/25 15:03:24;;;;;;;;;;;;;;;;;;5065109;28;19925;-67
2021/11/25 15:05:51;;;;;;;;;;;;;;;;;;5062992;28;19931;-67
2021/11/25 15:08:18;;;;;;;;;;;;;;;;;;5049254;28;20407;-68
2021/11/25 15:10:45;;;;;;;;;;;;;;;;;;5056227;28;19933;-67
2021/11/25 15:13:12;;;;;;;;;;;;;;;;;;5063206;28;19928;-67
2021/11/25 15:15:39;;;;;;;;;;;;;;;;;;5061979;28;19931;-67
2021/11/25 15:18:06;;;;;;;;;;;;;;;;;;5062787;28;19932;-68
2021/11/25 15:20:33;;;;;;;;;;;;;;;;;;5046732;28;19933;-66
2021/11/25 15:23:00;;;;;;;;;;;;;;;;;;5058508;28;20396;-66
2021/11/25 15:25:27;;;;;;;;;;;;;;;;;;5063708;28;19928;-67
2021/11/25 15:28:00;;;;;;;;;;;;;;;;;;5063120;28;20032;-67
2021/11/25 15:30:27;;;;;;;;;;;;;;;;;;5056312;28;20332;-67
2021/11/25 15:32:54;;;;;;;;;;;;;;;;;;5059571;28;19978;-67
2021/11/25 15:35:21;;;;;;;;;;;;;;;;;;5060438;28;20365;-67
2021/11/25 15:37:48;;;;;;;;;;;;;;;;;;5055777;28;19931;-67
2021/11/25 15:40:15;;;;;;;;;;;;;;;;;;5048596;28;20415;-67
2021/11/25 15:42:42;;;;;;;;;;;;;;;;;;5059759;28;19928;-67
2021/11/25 15:45:09;;;;;;;;;;;;;;;;;;5061060;28;19928;-67
2021/11/25 15:47:36;;;;;;;;;;;;;;;;;;5064714;28;19924;-68
2021/11/25 15:50:04;;;;;;;;;;;;;;;;;;5060550;28;20432;-68
2021/11/25 15:52:31;;;;;;;;;;;;;;;;;;5064303;28;20036;-68
2021/11/25 15:54:58;;;;;;;;;;;;;;;;;;5061449;28;20030;-68
2021/11/25 15:57:25;;;;;;;;;;;;;;;;;;5065484;28;19925;-68
2021/11/25 15:59:52;;;;;;;;;;;;;;;;;;5060687;28;20368;-67
2021/11/25 16:02:22;;;;;;;;;;;;;;;;;;5063427;28;19931;-66
2021/11/25 16:04:49;;;;;;;;;;;;;;;;;;5056731;28;19929;-67
2021/11/25 16:07:16;;;;;;;;;;;;;;;;;;5058225;28;19925;-67
2021/11/25 16:09:43;;;;;;;;;;;;;;;;;;5058331;28;19952;-68
2021/11/25 16:12:12;;;;;;;;;;;;;;;;;;5057942;28;19925;-68
2021/11/25 16:14:43;;;;;;;;;;;;;;;;;;5062161;28;19928;-67
2021/11/25 16:17:10;;;;;;;;;;;;;;;;;;5059086;28;19925;-67
2021/11/25 16:19:37;;;;;;;;;;;;;;;;;;5063951;28;19928;-67
2021/11/25 16:22:04;;;;;;;;;;;;;;;;;;5061590;28;19925;-67
2021/11/25 16:24:31;;;;;;;;;;;;;;;;;;5061649;28;19928;-67
2021/11/25 16:26:58;;;;;;;;;;;;;;;;;;5063035;28;20311;-68
2021/11/25 16:29:25;;;;;;;;;;;;;;;;;;5061965;28;19931;-67
2021/11/25 16:31:52;;;;;;;;;;;;;;;;;;5059373;28;20462;-68
2021/11/25 16:34:23;;;;;;;;;;;;;;;;;;5058237;28;19925;-68
2021/11/25 16:36:50;;;;;;;;;;;;;;;;;;5051345;22;19976;-66
2021/11/25 16:39:17;;;;;;;;;;;;;;;;;;5011406;28;20016;-68
2021/11/25 16:41:44;;;;;;;;;;;;;;;;;;5006018;28;20016;-67
2021/11/25 16:44:11;;;;;;;;;;;;;;;;;;5002895;28;20389;-66
2021/11/25 16:49:19;;;;;;;;;;;;;;;;;;5106743;28;19927;-68
2021/11/25 16:51:46;;;;;;;;;;;;;;;;;;5107435;28;19928;-67
2021/11/25 16:54:14;;;;;;;;;;;;;;;;;;5108773;28;19923;-65
2021/11/25 16:56:41;;;;;;;;;;;;;;;;;;5104559;28;19932;-68